sensor_id;sensor_type;location;lat;lon;timestamp;P1;durP1;ratioP1;P2;durP2;ratioP2
49578;SDS011;35483;50.828;3.228;2022-12-29T00:01:18;1.20;;;1.08;;
49578;SDS011;35483;50.828;3.228;2022-12-29T00:03:46;1.30;;;1.20;;
49578;SDS011;35483;50.828;3.228;2022-12-29T00:06:12;1.55;;;0.80;;
49578;SDS011;35483;50.828;3.228;2022-12-29T00:08:38;1.80;;;1.00;;
49578;SDS011;35483;50.828;3.228;2022-12-29T00:11:07;1.77;;;0.73;;
49578;SDS011;35483;50.828;3.228;2022-12-29T00:13:38;1.10;;;0.90;;
49578;SDS011;35483;50.828;3.228;2022-12-29T00:16:23;1.70;;;0.80;;
49578;SDS011;35483;50.828;3.228;2022-12-29T00:18:48;3.50;;;0.93;;
49578;SDS011;35483;50.828;3.228;2022-12-29T00:21:15;1.52;;;0.80;;
49578;SDS011;35483;50.828;3.228;2022-12-29T00:24:01;1.42;;;0.90;;
49578;SDS011;35483;50.828;3.228;2022-12-29T00:26:45;2.13;;;1.10;;
49578;SDS011;35483;50.828;3.228;2022-12-29T00:29:37;1.20;;;0.73;;
49578;SDS011;35483;50.828;3.228;2022-12-29T00:32:21;0.90;;;0.70;;
49578;SDS011;35483;50.828;3.228;2022-12-29T00:35:07;1.80;;;0.80;;
49578;SDS011;35483;50.828;3.228;2022-12-29T00:37:42;1.48;;;0.65;;
49578;SDS011;35483;50.828;3.228;2022-12-29T00:40:28;2.10;;;1.00;;
49578;SDS011;35483;50.828;3.228;2022-12-29T00:43:12;1.30;;;0.82;;
49578;SDS011;35483;50.828;3.228;2022-12-29T00:45:56;1.67;;;0.80;;
49578;SDS011;35483;50.828;3.228;2022-12-29T00:48:22;4.90;;;1.15;;
49578;SDS011;35483;50.828;3.228;2022-12-29T00:51:06;2.78;;;1.15;;
49578;SDS011;35483;50.828;3.228;2022-12-29T00:53:32;1.35;;;0.85;;
49578;SDS011;35483;50.828;3.228;2022-12-29T00:55:58;1.90;;;0.82;;
49578;SDS011;35483;50.828;3.228;2022-12-29T00:58:26;1.73;;;0.90;;
49578;SDS011;35483;50.828;3.228;2022-12-29T01:01:00;1.48;;;0.80;;
49578;SDS011;35483;50.828;3.228;2022-12-29T01:03:29;4.20;;;1.05;;
49578;SDS011;35483;50.828;3.228;2022-12-29T01:05:55;1.35;;;0.80;;
49578;SDS011;35483;50.828;3.228;2022-12-29T01:08:21;2.78;;;0.95;;
49578;SDS011;35483;50.828;3.228;2022-12-29T01:10:57;2.05;;;0.90;;
49578;SDS011;35483;50.828;3.228;2022-12-29T01:15:59;2.90;;;1.00;;
49578;SDS011;35483;50.828;3.228;2022-12-29T01:18:25;2.83;;;1.30;;
49578;SDS011;35483;50.828;3.228;2022-12-29T01:20:57;2.80;;;1.23;;
49578;SDS011;35483;50.828;3.228;2022-12-29T01:23:26;4.35;;;1.08;;
49578;SDS011;35483;50.828;3.228;2022-12-29T01:25:52;3.30;;;1.20;;
49578;SDS011;35483;50.828;3.228;2022-12-29T01:28:17;4.38;;;1.30;;
49578;SDS011;35483;50.828;3.228;2022-12-29T01:30:43;1.52;;;1.17;;
49578;SDS011;35483;50.828;3.228;2022-12-29T01:33:09;1.63;;;0.90;;
49578;SDS011;35483;50.828;3.228;2022-12-29T01:35:34;2.83;;;1.00;;
49578;SDS011;35483;50.828;3.228;2022-12-29T01:38:01;3.63;;;1.10;;
49578;SDS011;35483;50.828;3.228;2022-12-29T01:40:27;3.00;;;1.52;;
49578;SDS011;35483;50.828;3.228;2022-12-29T01:42:53;3.22;;;1.20;;
49578;SDS011;35483;50.828;3.228;2022-12-29T01:45:19;4.80;;;1.17;;
49578;SDS011;35483;50.828;3.228;2022-12-29T01:50:31;3.53;;;1.15;;
49578;SDS011;35483;50.828;3.228;2022-12-29T01:52:59;1.42;;;1.00;;
49578;SDS011;35483;50.828;3.228;2022-12-29T01:55:50;3.83;;;1.00;;
49578;SDS011;35483;50.828;3.228;2022-12-29T01:58:19;3.10;;;1.35;;
49578;SDS011;35483;50.828;3.228;2022-12-29T02:00:48;4.18;;;1.25;;
49578;SDS011;35483;50.828;3.228;2022-12-29T02:03:14;1.40;;;1.10;;
49578;SDS011;35483;50.828;3.228;2022-12-29T02:08:22;2.50;;;1.10;;
49578;SDS011;35483;50.828;3.228;2022-12-29T02:10:51;2.55;;;1.45;;
49578;SDS011;35483;50.828;3.228;2022-12-29T02:13:17;3.42;;;1.20;;
49578;SDS011;35483;50.828;3.228;2022-12-29T02:19:00;2.80;;;1.05;;
49578;SDS011;35483;50.828;3.228;2022-12-29T02:24:39;3.78;;;1.13;;
49578;SDS011;35483;50.828;3.228;2022-12-29T02:33:21;2.63;;;1.10;;
49578;SDS011;35483;50.828;3.228;2022-12-29T02:36:13;3.15;;;1.30;;
49578;SDS011;35483;50.828;3.228;2022-12-29T02:52:46;3.10;;;1.23;;
49578;SDS011;35483;50.828;3.228;2022-12-29T02:55:16;3.72;;;1.20;;
49578;SDS011;35483;50.828;3.228;2022-12-29T02:57:42;3.25;;;1.35;;
49578;SDS011;35483;50.828;3.228;2022-12-29T03:00:09;3.08;;;1.35;;
49578;SDS011;35483;50.828;3.228;2022-12-29T03:05:22;6.00;;;1.17;;
49578;SDS011;35483;50.828;3.228;2022-12-29T03:11:10;3.05;;;1.20;;
49578;SDS011;35483;50.828;3.228;2022-12-29T03:13:54;4.47;;;1.58;;
49578;SDS011;35483;50.828;3.228;2022-12-29T03:16:50;3.90;;;1.58;;
49578;SDS011;35483;50.828;3.228;2022-12-29T03:19:35;3.67;;;1.42;;
49578;SDS011;35483;50.828;3.228;2022-12-29T03:22:10;3.15;;;1.20;;
49578;SDS011;35483;50.828;3.228;2022-12-29T03:24:53;3.40;;;1.48;;
49578;SDS011;35483;50.828;3.228;2022-12-29T03:27:25;5.55;;;1.30;;
49578;SDS011;35483;50.828;3.228;2022-12-29T03:30:00;6.25;;;1.60;;
49578;SDS011;35483;50.828;3.228;2022-12-29T03:32:31;6.57;;;2.25;;
49578;SDS011;35483;50.828;3.228;2022-12-29T03:35:00;7.22;;;2.22;;
49578;SDS011;35483;50.828;3.228;2022-12-29T03:37:29;7.80;;;1.80;;
49578;SDS011;35483;50.828;3.228;2022-12-29T03:40:01;4.05;;;1.40;;
49578;SDS011;35483;50.828;3.228;2022-12-29T03:42:27;6.47;;;1.67;;
49578;SDS011;35483;50.828;3.228;2022-12-29T03:44:56;5.40;;;1.40;;
49578;SDS011;35483;50.828;3.228;2022-12-29T03:47:22;7.25;;;1.85;;
49578;SDS011;35483;50.828;3.228;2022-12-29T03:49:49;8.55;;;1.60;;
49578;SDS011;35483;50.828;3.228;2022-12-29T03:52:15;4.40;;;1.60;;
49578;SDS011;35483;50.828;3.228;2022-12-29T03:54:41;3.53;;;1.67;;
49578;SDS011;35483;50.828;3.228;2022-12-29T03:57:07;5.70;;;1.70;;
49578;SDS011;35483;50.828;3.228;2022-12-29T03:59:33;6.13;;;1.55;;
49578;SDS011;35483;50.828;3.228;2022-12-29T04:01:59;3.30;;;1.40;;
49578;SDS011;35483;50.828;3.228;2022-12-29T04:04:25;5.63;;;1.70;;
49578;SDS011;35483;50.828;3.228;2022-12-29T04:06:50;4.25;;;1.90;;
49578;SDS011;35483;50.828;3.228;2022-12-29T04:09:16;5.60;;;1.55;;
49578;SDS011;35483;50.828;3.228;2022-12-29T04:11:43;5.93;;;1.63;;
49578;SDS011;35483;50.828;3.228;2022-12-29T04:14:08;4.47;;;1.33;;
49578;SDS011;35483;50.828;3.228;2022-12-29T04:16:34;7.43;;;1.25;;
49578;SDS011;35483;50.828;3.228;2022-12-29T04:19:06;3.88;;;1.30;;
49578;SDS011;35483;50.828;3.228;2022-12-29T04:21:33;2.85;;;1.13;;
49578;SDS011;35483;50.828;3.228;2022-12-29T04:23:59;3.60;;;1.33;;
49578;SDS011;35483;50.828;3.228;2022-12-29T04:26:25;3.88;;;1.30;;
49578;SDS011;35483;50.828;3.228;2022-12-29T04:28:51;8.25;;;1.65;;
49578;SDS011;35483;50.828;3.228;2022-12-29T04:31:16;2.20;;;1.20;;
49578;SDS011;35483;50.828;3.228;2022-12-29T04:33:42;5.05;;;1.25;;
49578;SDS011;35483;50.828;3.228;2022-12-29T04:36:09;3.47;;;1.38;;
49578;SDS011;35483;50.828;3.228;2022-12-29T04:38:35;5.72;;;1.58;;
49578;SDS011;35483;50.828;3.228;2022-12-29T04:41:02;5.82;;;1.27;;
49578;SDS011;35483;50.828;3.228;2022-12-29T04:43:28;3.97;;;1.17;;
49578;SDS011;35483;50.828;3.228;2022-12-29T04:45:53;6.30;;;2.10;;
49578;SDS011;35483;50.828;3.228;2022-12-29T04:48:19;4.38;;;1.75;;
49578;SDS011;35483;50.828;3.228;2022-12-29T04:50:47;6.43;;;1.40;;
49578;SDS011;35483;50.828;3.228;2022-12-29T04:53:14;4.13;;;1.40;;
49578;SDS011;35483;50.828;3.228;2022-12-29T04:55:40;6.18;;;1.48;;
49578;SDS011;35483;50.828;3.228;2022-12-29T04:58:06;7.03;;;1.67;;
49578;SDS011;35483;50.828;3.228;2022-12-29T05:00:32;5.15;;;1.40;;
49578;SDS011;35483;50.828;3.228;2022-12-29T05:02:58;5.00;;;1.73;;
49578;SDS011;35483;50.828;3.228;2022-12-29T05:05:24;5.70;;;1.55;;
49578;SDS011;35483;50.828;3.228;2022-12-29T05:07:49;4.97;;;1.40;;
49578;SDS011;35483;50.828;3.228;2022-12-29T05:10:15;3.47;;;1.90;;
49578;SDS011;35483;50.828;3.228;2022-12-29T05:12:43;5.05;;;1.75;;
49578;SDS011;35483;50.828;3.228;2022-12-29T05:15:09;4.43;;;1.50;;
49578;SDS011;35483;50.828;3.228;2022-12-29T05:17:36;5.25;;;1.50;;
49578;SDS011;35483;50.828;3.228;2022-12-29T05:20:03;3.38;;;1.25;;
49578;SDS011;35483;50.828;3.228;2022-12-29T05:22:30;5.00;;;1.40;;
49578;SDS011;35483;50.828;3.228;2022-12-29T05:24:55;4.78;;;1.40;;
49578;SDS011;35483;50.828;3.228;2022-12-29T05:27:21;3.15;;;1.67;;
49578;SDS011;35483;50.828;3.228;2022-12-29T05:29:47;5.15;;;1.95;;
49578;SDS011;35483;50.828;3.228;2022-12-29T05:32:12;5.28;;;1.67;;
49578;SDS011;35483;50.828;3.228;2022-12-29T05:34:38;6.55;;;2.05;;
49578;SDS011;35483;50.828;3.228;2022-12-29T05:37:04;4.97;;;1.60;;
49578;SDS011;35483;50.828;3.228;2022-12-29T05:39:30;8.32;;;1.80;;
49578;SDS011;35483;50.828;3.228;2022-12-29T05:41:55;5.85;;;2.08;;
49578;SDS011;35483;50.828;3.228;2022-12-29T05:44:21;5.70;;;1.65;;
49578;SDS011;35483;50.828;3.228;2022-12-29T05:46:47;4.70;;;1.77;;
49578;SDS011;35483;50.828;3.228;2022-12-29T05:49:12;8.52;;;2.38;;
49578;SDS011;35483;50.828;3.228;2022-12-29T05:51:39;6.00;;;1.90;;
49578;SDS011;35483;50.828;3.228;2022-12-29T05:54:05;8.55;;;2.20;;
49578;SDS011;35483;50.828;3.228;2022-12-29T05:56:30;9.02;;;2.58;;
49578;SDS011;35483;50.828;3.228;2022-12-29T05:58:56;3.92;;;2.03;;
49578;SDS011;35483;50.828;3.228;2022-12-29T06:01:22;7.60;;;2.88;;
49578;SDS011;35483;50.828;3.228;2022-12-29T06:03:47;4.53;;;2.05;;
49578;SDS011;35483;50.828;3.228;2022-12-29T06:06:13;9.07;;;2.03;;
49578;SDS011;35483;50.828;3.228;2022-12-29T06:08:39;7.18;;;1.73;;
49578;SDS011;35483;50.828;3.228;2022-12-29T06:11:06;7.60;;;2.63;;
49578;SDS011;35483;50.828;3.228;2022-12-29T06:13:31;5.38;;;2.13;;
49578;SDS011;35483;50.828;3.228;2022-12-29T06:15:57;8.43;;;2.13;;
49578;SDS011;35483;50.828;3.228;2022-12-29T06:18:23;5.22;;;2.00;;
49578;SDS011;35483;50.828;3.228;2022-12-29T06:20:48;9.10;;;2.35;;
49578;SDS011;35483;50.828;3.228;2022-12-29T06:23:14;8.63;;;1.95;;
49578;SDS011;35483;50.828;3.228;2022-12-29T06:25:40;9.05;;;2.30;;
49578;SDS011;35483;50.828;3.228;2022-12-29T06:28:05;6.95;;;1.90;;
49578;SDS011;35483;50.828;3.228;2022-12-29T06:30:31;7.32;;;2.28;;
49578;SDS011;35483;50.828;3.228;2022-12-29T06:32:58;4.65;;;1.92;;
49578;SDS011;35483;50.828;3.228;2022-12-29T06:35:24;7.40;;;2.20;;
49578;SDS011;35483;50.828;3.228;2022-12-29T06:37:50;8.48;;;1.83;;
49578;SDS011;35483;50.828;3.228;2022-12-29T06:40:15;3.50;;;1.67;;
49578;SDS011;35483;50.828;3.228;2022-12-29T06:42:41;7.65;;;2.13;;
49578;SDS011;35483;50.828;3.228;2022-12-29T06:45:07;9.60;;;2.17;;
49578;SDS011;35483;50.828;3.228;2022-12-29T06:47:33;6.47;;;1.85;;
49578;SDS011;35483;50.828;3.228;2022-12-29T06:50:00;6.57;;;2.05;;
49578;SDS011;35483;50.828;3.228;2022-12-29T06:52:26;6.35;;;2.58;;
49578;SDS011;35483;50.828;3.228;2022-12-29T06:54:53;11.20;;;3.22;;
49578;SDS011;35483;50.828;3.228;2022-12-29T06:57:19;6.15;;;2.40;;
49578;SDS011;35483;50.828;3.228;2022-12-29T06:59:45;5.97;;;2.05;;
49578;SDS011;35483;50.828;3.228;2022-12-29T07:02:10;7.22;;;2.03;;
49578;SDS011;35483;50.828;3.228;2022-12-29T07:04:37;5.25;;;2.03;;
49578;SDS011;35483;50.828;3.228;2022-12-29T07:07:02;8.60;;;2.65;;
49578;SDS011;35483;50.828;3.228;2022-12-29T07:09:28;7.00;;;2.55;;
49578;SDS011;35483;50.828;3.228;2022-12-29T07:11:54;8.98;;;2.53;;
49578;SDS011;35483;50.828;3.228;2022-12-29T07:14:19;6.22;;;2.03;;
49578;SDS011;35483;50.828;3.228;2022-12-29T07:16:45;10.57;;;3.53;;
49578;SDS011;35483;50.828;3.228;2022-12-29T07:19:11;5.38;;;1.70;;
49578;SDS011;35483;50.828;3.228;2022-12-29T07:21:36;5.07;;;1.80;;
49578;SDS011;35483;50.828;3.228;2022-12-29T07:24:02;8.68;;;2.40;;
49578;SDS011;35483;50.828;3.228;2022-12-29T07:26:28;7.43;;;2.53;;
49578;SDS011;35483;50.828;3.228;2022-12-29T07:28:53;7.35;;;2.33;;
49578;SDS011;35483;50.828;3.228;2022-12-29T07:31:21;9.38;;;2.25;;
49578;SDS011;35483;50.828;3.228;2022-12-29T07:33:49;10.75;;;2.38;;
49578;SDS011;35483;50.828;3.228;2022-12-29T07:36:15;8.38;;;2.47;;
49578;SDS011;35483;50.828;3.228;2022-12-29T07:38:41;7.30;;;1.92;;
49578;SDS011;35483;50.828;3.228;2022-12-29T07:41:08;6.63;;;2.00;;
49578;SDS011;35483;50.828;3.228;2022-12-29T07:43:35;9.38;;;2.00;;
49578;SDS011;35483;50.828;3.228;2022-12-29T07:46:01;9.90;;;2.28;;
49578;SDS011;35483;50.828;3.228;2022-12-29T07:48:27;7.70;;;2.05;;
49578;SDS011;35483;50.828;3.228;2022-12-29T07:50:52;11.40;;;2.78;;
49578;SDS011;35483;50.828;3.228;2022-12-29T07:53:18;6.32;;;2.05;;
49578;SDS011;35483;50.828;3.228;2022-12-29T07:55:45;5.50;;;2.45;;
49578;SDS011;35483;50.828;3.228;2022-12-29T07:58:10;7.95;;;2.45;;
49578;SDS011;35483;50.828;3.228;2022-12-29T08:00:37;6.55;;;2.45;;
49578;SDS011;35483;50.828;3.228;2022-12-29T08:03:03;7.05;;;1.90;;
49578;SDS011;35483;50.828;3.228;2022-12-29T08:05:30;10.60;;;2.72;;
49578;SDS011;35483;50.828;3.228;2022-12-29T08:07:57;7.70;;;2.17;;
49578;SDS011;35483;50.828;3.228;2022-12-29T08:10:23;6.03;;;2.03;;
49578;SDS011;35483;50.828;3.228;2022-12-29T08:12:49;8.07;;;2.42;;
49578;SDS011;35483;50.828;3.228;2022-12-29T08:15:15;6.53;;;2.15;;
49578;SDS011;35483;50.828;3.228;2022-12-29T08:17:41;6.43;;;2.63;;
49578;SDS011;35483;50.828;3.228;2022-12-29T08:20:07;10.60;;;2.20;;
49578;SDS011;35483;50.828;3.228;2022-12-29T08:22:33;5.88;;;2.20;;
49578;SDS011;35483;50.828;3.228;2022-12-29T08:24:59;6.32;;;2.25;;
49578;SDS011;35483;50.828;3.228;2022-12-29T08:27:25;8.63;;;2.53;;
49578;SDS011;35483;50.828;3.228;2022-12-29T08:29:51;9.00;;;2.17;;
49578;SDS011;35483;50.828;3.228;2022-12-29T08:32:17;8.75;;;3.50;;
49578;SDS011;35483;50.828;3.228;2022-12-29T08:34:43;6.53;;;2.40;;
49578;SDS011;35483;50.828;3.228;2022-12-29T08:37:08;10.13;;;2.58;;
49578;SDS011;35483;50.828;3.228;2022-12-29T08:39:35;8.23;;;2.80;;
49578;SDS011;35483;50.828;3.228;2022-12-29T08:42:01;10.57;;;2.70;;
49578;SDS011;35483;50.828;3.228;2022-12-29T08:44:27;13.40;;;2.97;;
49578;SDS011;35483;50.828;3.228;2022-12-29T08:46:52;9.75;;;2.63;;
49578;SDS011;35483;50.828;3.228;2022-12-29T08:49:18;9.68;;;2.80;;
49578;SDS011;35483;50.828;3.228;2022-12-29T08:51:44;8.48;;;2.00;;
49578;SDS011;35483;50.828;3.228;2022-12-29T08:54:09;8.50;;;2.67;;
49578;SDS011;35483;50.828;3.228;2022-12-29T08:56:35;9.23;;;2.78;;
49578;SDS011;35483;50.828;3.228;2022-12-29T08:59:01;9.27;;;2.47;;
49578;SDS011;35483;50.828;3.228;2022-12-29T09:01:27;13.55;;;2.88;;
49578;SDS011;35483;50.828;3.228;2022-12-29T09:03:52;5.80;;;1.92;;
49578;SDS011;35483;50.828;3.228;2022-12-29T09:06:19;8.55;;;2.45;;
49578;SDS011;35483;50.828;3.228;2022-12-29T09:08:45;7.22;;;2.88;;
49578;SDS011;35483;50.828;3.228;2022-12-29T09:11:17;11.35;;;2.70;;
49578;SDS011;35483;50.828;3.228;2022-12-29T09:13:45;9.07;;;2.60;;
49578;SDS011;35483;50.828;3.228;2022-12-29T09:16:11;10.50;;;2.95;;
49578;SDS011;35483;50.828;3.228;2022-12-29T09:18:37;15.75;;;3.67;;
49578;SDS011;35483;50.828;3.228;2022-12-29T09:21:04;8.07;;;2.90;;
49578;SDS011;35483;50.828;3.228;2022-12-29T09:23:31;7.38;;;2.42;;
49578;SDS011;35483;50.828;3.228;2022-12-29T09:25:57;9.10;;;2.80;;
49578;SDS011;35483;50.828;3.228;2022-12-29T09:28:23;9.30;;;2.78;;
49578;SDS011;35483;50.828;3.228;2022-12-29T09:30:49;11.27;;;3.15;;
49578;SDS011;35483;50.828;3.228;2022-12-29T09:33:16;9.32;;;2.47;;
49578;SDS011;35483;50.828;3.228;2022-12-29T09:35:44;7.20;;;2.53;;
49578;SDS011;35483;50.828;3.228;2022-12-29T09:38:15;7.43;;;2.70;;
49578;SDS011;35483;50.828;3.228;2022-12-29T09:40:43;12.18;;;2.80;;
49578;SDS011;35483;50.828;3.228;2022-12-29T09:48:27;7.65;;;2.25;;
49578;SDS011;35483;50.828;3.228;2022-12-29T09:50:58;10.25;;;2.90;;
49578;SDS011;35483;50.828;3.228;2022-12-29T09:53:29;7.63;;;2.55;;
49578;SDS011;35483;50.828;3.228;2022-12-29T09:55:57;7.40;;;2.70;;
49578;SDS011;35483;50.828;3.228;2022-12-29T09:58:32;10.23;;;2.72;;
49578;SDS011;35483;50.828;3.228;2022-12-29T10:01:07;8.10;;;2.38;;
49578;SDS011;35483;50.828;3.228;2022-12-29T10:12:24;6.38;;;2.10;;
49578;SDS011;35483;50.828;3.228;2022-12-29T10:15:29;7.57;;;2.00;;
49578;SDS011;35483;50.828;3.228;2022-12-29T10:20:57;5.75;;;1.90;;
49578;SDS011;35483;50.828;3.228;2022-12-29T10:23:35;9.02;;;1.88;;
49578;SDS011;35483;50.828;3.228;2022-12-29T10:26:09;8.50;;;2.00;;
49578;SDS011;35483;50.828;3.228;2022-12-29T10:31:16;6.82;;;2.13;;
49578;SDS011;35483;50.828;3.228;2022-12-29T10:33:46;8.95;;;2.13;;
49578;SDS011;35483;50.828;3.228;2022-12-29T10:42:13;4.80;;;2.17;;
49578;SDS011;35483;50.828;3.228;2022-12-29T10:44:46;4.45;;;1.98;;
49578;SDS011;35483;50.828;3.228;2022-12-29T10:47:14;4.22;;;1.70;;
49578;SDS011;35483;50.828;3.228;2022-12-29T10:49:45;7.75;;;2.10;;
49578;SDS011;35483;50.828;3.228;2022-12-29T10:52:12;9.52;;;2.53;;
49578;SDS011;35483;50.828;3.228;2022-12-29T11:00:13;6.72;;;2.00;;
49578;SDS011;35483;50.828;3.228;2022-12-29T11:03:03;6.72;;;2.13;;
49578;SDS011;35483;50.828;3.228;2022-12-29T11:08:34;10.48;;;2.42;;
49578;SDS011;35483;50.828;3.228;2022-12-29T11:11:07;7.28;;;2.63;;
49578;SDS011;35483;50.828;3.228;2022-12-29T11:13:35;7.82;;;2.03;;
49578;SDS011;35483;50.828;3.228;2022-12-29T11:16:13;8.82;;;2.40;;
49578;SDS011;35483;50.828;3.228;2022-12-29T11:18:39;5.78;;;2.20;;
49578;SDS011;35483;50.828;3.228;2022-12-29T11:24:04;7.95;;;2.58;;
49578;SDS011;35483;50.828;3.228;2022-12-29T11:26:43;8.60;;;2.35;;
49578;SDS011;35483;50.828;3.228;2022-12-29T11:31:42;7.82;;;2.47;;
49578;SDS011;35483;50.828;3.228;2022-12-29T11:34:14;8.40;;;2.75;;
49578;SDS011;35483;50.828;3.228;2022-12-29T11:36:47;7.38;;;2.13;;
49578;SDS011;35483;50.828;3.228;2022-12-29T11:39:24;8.20;;;2.42;;
49578;SDS011;35483;50.828;3.228;2022-12-29T11:41:57;7.80;;;2.45;;
49578;SDS011;35483;50.828;3.228;2022-12-29T11:44:24;11.57;;;2.45;;
49578;SDS011;35483;50.828;3.228;2022-12-29T11:46:51;6.78;;;2.25;;
49578;SDS011;35483;50.828;3.228;2022-12-29T11:49:24;8.10;;;2.10;;
49578;SDS011;35483;50.828;3.228;2022-12-29T11:51:51;6.05;;;1.90;;
49578;SDS011;35483;50.828;3.228;2022-12-29T11:56:52;4.55;;;1.50;;
49578;SDS011;35483;50.828;3.228;2022-12-29T12:01:59;4.85;;;1.48;;
49578;SDS011;35483;50.828;3.228;2022-12-29T12:04:34;5.03;;;1.17;;
49578;SDS011;35483;50.828;3.228;2022-12-29T12:09:36;4.78;;;1.45;;
49578;SDS011;35483;50.828;3.228;2022-12-29T12:12:24;5.88;;;1.73;;
49578;SDS011;35483;50.828;3.228;2022-12-29T12:14:58;2.67;;;1.23;;
49578;SDS011;35483;50.828;3.228;2022-12-29T12:17:37;4.57;;;1.35;;
49578;SDS011;35483;50.828;3.228;2022-12-29T12:20:16;3.30;;;1.45;;
49578;SDS011;35483;50.828;3.228;2022-12-29T12:22:53;5.53;;;2.15;;
49578;SDS011;35483;50.828;3.228;2022-12-29T12:25:39;4.95;;;1.85;;
49578;SDS011;35483;50.828;3.228;2022-12-29T12:28:15;4.45;;;1.60;;
49578;SDS011;35483;50.828;3.228;2022-12-29T12:30:49;6.07;;;1.60;;
49578;SDS011;35483;50.828;3.228;2022-12-29T12:33:22;3.92;;;1.45;;
49578;SDS011;35483;50.828;3.228;2022-12-29T12:38:54;5.95;;;1.80;;
49578;SDS011;35483;50.828;3.228;2022-12-29T12:41:34;4.30;;;1.70;;
49578;SDS011;35483;50.828;3.228;2022-12-29T12:44:32;5.03;;;1.73;;
49578;SDS011;35483;50.828;3.228;2022-12-29T12:55:28;6.07;;;2.10;;
49578;SDS011;35483;50.828;3.228;2022-12-29T13:03:45;4.05;;;1.35;;
49578;SDS011;35483;50.828;3.228;2022-12-29T13:06:18;5.45;;;1.63;;
49578;SDS011;35483;50.828;3.228;2022-12-29T13:08:55;3.17;;;1.20;;
49578;SDS011;35483;50.828;3.228;2022-12-29T13:11:41;4.20;;;1.60;;
49578;SDS011;35483;50.828;3.228;2022-12-29T13:19:44;2.35;;;1.45;;
49578;SDS011;35483;50.828;3.228;2022-12-29T13:25:29;3.28;;;1.13;;
49578;SDS011;35483;50.828;3.228;2022-12-29T13:28:19;2.75;;;1.45;;
49578;SDS011;35483;50.828;3.228;2022-12-29T13:36:46;4.18;;;1.70;;
49578;SDS011;35483;50.828;3.228;2022-12-29T13:39:18;6.00;;;1.50;;
49578;SDS011;35483;50.828;3.228;2022-12-29T13:44:17;3.30;;;1.20;;
49578;SDS011;35483;50.828;3.228;2022-12-29T13:46:47;2.33;;;1.50;;
49578;SDS011;35483;50.828;3.228;2022-12-29T13:49:17;6.40;;;2.05;;
49578;SDS011;35483;50.828;3.228;2022-12-29T13:57:10;6.43;;;2.67;;
49578;SDS011;35483;50.828;3.228;2022-12-29T14:05:03;4.35;;;1.73;;
49578;SDS011;35483;50.828;3.228;2022-12-29T14:07:49;2.55;;;1.48;;
49578;SDS011;35483;50.828;3.228;2022-12-29T14:15:37;6.65;;;1.63;;
49578;SDS011;35483;50.828;3.228;2022-12-29T14:18:17;6.13;;;1.83;;
49578;SDS011;35483;50.828;3.228;2022-12-29T14:20:50;7.28;;;1.85;;
49578;SDS011;35483;50.828;3.228;2022-12-29T14:23:27;4.10;;;1.77;;
49578;SDS011;35483;50.828;3.228;2022-12-29T14:25:57;6.90;;;2.83;;
49578;SDS011;35483;50.828;3.228;2022-12-29T14:28:32;8.18;;;2.40;;
49578;SDS011;35483;50.828;3.228;2022-12-29T14:31:02;6.88;;;1.88;;
49578;SDS011;35483;50.828;3.228;2022-12-29T14:33:30;8.45;;;2.25;;
49578;SDS011;35483;50.828;3.228;2022-12-29T14:35:57;7.35;;;2.13;;
49578;SDS011;35483;50.828;3.228;2022-12-29T14:38:59;6.75;;;2.42;;
49578;SDS011;35483;50.828;3.228;2022-12-29T14:41:27;9.63;;;2.53;;
49578;SDS011;35483;50.828;3.228;2022-12-29T14:43:58;10.52;;;2.65;;
49578;SDS011;35483;50.828;3.228;2022-12-29T14:46:41;7.65;;;2.40;;
49578;SDS011;35483;50.828;3.228;2022-12-29T14:49:14;7.57;;;2.75;;
49578;SDS011;35483;50.828;3.228;2022-12-29T14:51:44;10.65;;;2.63;;
49578;SDS011;35483;50.828;3.228;2022-12-29T14:54:57;5.93;;;2.10;;
49578;SDS011;35483;50.828;3.228;2022-12-29T14:57:04;6.07;;;1.80;;
49578;SDS011;35483;50.828;3.228;2022-12-29T14:59:34;5.93;;;1.80;;
49578;SDS011;35483;50.828;3.228;2022-12-29T15:02:05;6.25;;;1.75;;
49578;SDS011;35483;50.828;3.228;2022-12-29T15:04:43;4.97;;;1.90;;
49578;SDS011;35483;50.828;3.228;2022-12-29T15:07:11;4.15;;;1.80;;
49578;SDS011;35483;50.828;3.228;2022-12-29T15:09:45;7.45;;;2.05;;
49578;SDS011;35483;50.828;3.228;2022-12-29T15:12:39;3.88;;;1.70;;
49578;SDS011;35483;50.828;3.228;2022-12-29T15:15:28;4.90;;;2.25;;
49578;SDS011;35483;50.828;3.228;2022-12-29T15:17:55;7.40;;;3.30;;
49578;SDS011;35483;50.828;3.228;2022-12-29T15:20:25;12.52;;;7.00;;
49578;SDS011;35483;50.828;3.228;2022-12-29T15:22:54;11.85;;;5.88;;
49578;SDS011;35483;50.828;3.228;2022-12-29T15:25:28;9.38;;;4.03;;
49578;SDS011;35483;50.828;3.228;2022-12-29T15:27:57;13.18;;;7.57;;
49578;SDS011;35483;50.828;3.228;2022-12-29T15:30:29;9.70;;;3.10;;
49578;SDS011;35483;50.828;3.228;2022-12-29T15:32:55;8.50;;;3.20;;
49578;SDS011;35483;50.828;3.228;2022-12-29T15:35:23;6.03;;;2.13;;
49578;SDS011;35483;50.828;3.228;2022-12-29T15:37:49;10.65;;;3.28;;
49578;SDS011;35483;50.828;3.228;2022-12-29T15:40:22;10.05;;;3.70;;
49578;SDS011;35483;50.828;3.228;2022-12-29T15:45:33;9.30;;;3.72;;
49578;SDS011;35483;50.828;3.228;2022-12-29T15:48:00;14.52;;;3.45;;
49578;SDS011;35483;50.828;3.228;2022-12-29T15:50:27;11.45;;;3.60;;
49578;SDS011;35483;50.828;3.228;2022-12-29T15:52:58;6.78;;;2.72;;
49578;SDS011;35483;50.828;3.228;2022-12-29T15:55:35;9.15;;;2.45;;
49578;SDS011;35483;50.828;3.228;2022-12-29T15:58:04;7.15;;;2.78;;
49578;SDS011;35483;50.828;3.228;2022-12-29T16:00:45;8.05;;;2.83;;
49578;SDS011;35483;50.828;3.228;2022-12-29T16:03:13;10.93;;;3.17;;
49578;SDS011;35483;50.828;3.228;2022-12-29T16:05:42;8.35;;;2.67;;
49578;SDS011;35483;50.828;3.228;2022-12-29T16:08:31;7.32;;;2.83;;
49578;SDS011;35483;50.828;3.228;2022-12-29T16:11:03;11.13;;;2.90;;
49578;SDS011;35483;50.828;3.228;2022-12-29T16:14:00;13.82;;;5.15;;
49578;SDS011;35483;50.828;3.228;2022-12-29T16:16:31;15.32;;;6.65;;
49578;SDS011;35483;50.828;3.228;2022-12-29T16:19:08;12.57;;;5.53;;
49578;SDS011;35483;50.828;3.228;2022-12-29T16:21:36;8.45;;;2.38;;
49578;SDS011;35483;50.828;3.228;2022-12-29T16:24:04;12.98;;;3.90;;
49578;SDS011;35483;50.828;3.228;2022-12-29T16:26:32;6.78;;;2.40;;
49578;SDS011;35483;50.828;3.228;2022-12-29T16:29:01;7.88;;;2.28;;
49578;SDS011;35483;50.828;3.228;2022-12-29T16:33:58;6.97;;;2.80;;
49578;SDS011;35483;50.828;3.228;2022-12-29T16:37:33;6.97;;;2.85;;
49578;SDS011;35483;50.828;3.228;2022-12-29T16:39:52;8.60;;;2.92;;
49578;SDS011;35483;50.828;3.228;2022-12-29T16:42:45;9.80;;;3.60;;
49578;SDS011;35483;50.828;3.228;2022-12-29T16:47:48;9.02;;;3.08;;
49578;SDS011;35483;50.828;3.228;2022-12-29T16:50:18;8.57;;;2.70;;
49578;SDS011;35483;50.828;3.228;2022-12-29T16:52:48;10.00;;;2.63;;
49578;SDS011;35483;50.828;3.228;2022-12-29T16:55:18;7.22;;;2.50;;
49578;SDS011;35483;50.828;3.228;2022-12-29T16:57:46;9.32;;;3.30;;
49578;SDS011;35483;50.828;3.228;2022-12-29T17:00:21;10.35;;;2.92;;
49578;SDS011;35483;50.828;3.228;2022-12-29T17:02:50;12.32;;;3.28;;
49578;SDS011;35483;50.828;3.228;2022-12-29T17:05:19;8.95;;;3.10;;
49578;SDS011;35483;50.828;3.228;2022-12-29T17:07:46;14.23;;;4.25;;
49578;SDS011;35483;50.828;3.228;2022-12-29T17:10:12;16.63;;;7.28;;
49578;SDS011;35483;50.828;3.228;2022-12-29T17:12:39;14.40;;;5.25;;
49578;SDS011;35483;50.828;3.228;2022-12-29T17:15:11;12.00;;;4.40;;
49578;SDS011;35483;50.828;3.228;2022-12-29T17:17:44;8.52;;;3.28;;
49578;SDS011;35483;50.828;3.228;2022-12-29T17:20:19;11.45;;;3.70;;
49578;SDS011;35483;50.828;3.228;2022-12-29T17:22:49;7.35;;;2.97;;
49578;SDS011;35483;50.828;3.228;2022-12-29T17:25:19;13.50;;;3.17;;
49578;SDS011;35483;50.828;3.228;2022-12-29T17:27:49;8.48;;;3.15;;
49578;SDS011;35483;50.828;3.228;2022-12-29T17:30:21;7.65;;;2.53;;